Résultats événements

12/05/2018 Triathlon de Choisy 2018-Cross Duathlon 10 13 ans




Arrivée
Categorie:

Clt Temps de course Nom Dos Cat Temps sur l'intervalle Clt int. Gain
1 00:15:18 LAGANT Matteo 938 MBE 00:15:18 1
2 00:15:50 HOULGATTE Louwenn 930 MPU 00:15:50 2
3 00:15:58 SOSNIAK Nathan 944 MPU 00:15:58 3
4 00:16:16 VINAND Armand 926 MPU 00:16:16 4
5 00:16:17 DEBARGE Valentin 936 MPU 00:16:17 5
6 00:16:21 DRUEZ Zoé 932 FBE 00:16:21 6
7 00:16:28 POULET Damien 943 MBE 00:16:28 7
8 00:16:37 BLIN Nolan 945 MPU 00:16:37 8
9 00:16:44 PINOT Antoine 956 MBE 00:16:44 9
10 00:16:59 MONFORT Aurelien 963 MBE 00:16:59 10
11 00:17:00 PALISSE Mael 942 MBE 00:17:00 11
12 00:17:11 YASUDA Makoto 931 MBE 00:17:11 12
13 00:17:12 BOBOK Timeo 925 MPU 00:17:12 13
14 00:17:29 CHAMPAGNE Sarah 934 FBE 00:17:29 14
15 00:17:39 LEMAITRE Paul 953 MBE 00:17:39 15
16 00:17:49 DEVELLENNE Louis 961 MPU 00:17:49 16
17 00:17:49 CHAMPAGNE Salome 935 FPU 00:17:49 17
18 00:18:15 DUBRAC Arthur 950 MPU 00:18:15 18
19 00:18:22 MATHIEU Paul 955 MBE 00:18:22 19
20 00:18:22 DRUEZ William 960 MPU 00:18:22 20
21 00:18:32 HUMBERT Calvin 947 MPU 00:18:32 21
22 00:18:47 BLIN Maeline 946 FBE 00:18:47 22
23 00:18:58 DHOURY LENFANT Robin 949 MPU 00:18:58 23
24 00:19:07 COGNET David 959 MPU 00:19:07 24
25 00:19:15 DEPRET Isaline 948 FPU 00:19:15 25
26 00:19:18 RICHARD Emma 962 FPU 00:19:18 26
27 00:19:25 EVELOY Natahn 951 MPU 00:19:25 27
28 00:19:26 KLIMPT Chloe 937 FBE 00:19:26 28
29 00:19:27 POLLET Valentin 957 MPU 00:19:27 29
30 00:20:00 DELFORT Quentin 929 MPU 00:20:00 30
31 00:20:10 MINGAM Roxane 928 FPU 00:20:10 31
32 00:20:41 MARUNCZAK Clara 940 FPU 00:20:41 32
33 00:20:45 MALGORN Angele 954 FPU 00:20:45 33
34 00:21:16 COGNEAUX AISSA Sarah lina 933 FPU 00:21:16 34
35 00:21:43 MANY TIERNY Louis 939 MPU 00:21:43 35
36 00:21:50 POLARD Mathilde 958 FPU 00:21:50 36


Restez connectés à vos performances